createdAt,value
2019-03-03T00:00:15.885Z,100612.47
2019-03-03T00:01:10.977Z,100611.05
2019-03-03T00:01:48.553Z,100609.34
2019-03-03T00:02:24.855Z,100614.55
2019-03-03T00:03:03.237Z,100611.66
2019-03-03T00:03:40.709Z,100609.90
2019-03-03T00:04:20.409Z,100610.87
2019-03-03T00:04:57.848Z,100619.09
2019-03-03T00:05:34.323Z,100618.73
2019-03-03T00:06:12.220Z,100619.12
2019-03-03T00:06:51.110Z,100621.39
2019-03-03T00:07:28.385Z,100618.84
2019-03-03T00:08:06.118Z,100620.02
2019-03-03T00:08:42.291Z,100623.16
2019-03-03T00:09:18.657Z,100621.06
2019-03-03T00:09:58.295Z,100629.31
2019-03-03T00:10:35.577Z,100632.55
2019-03-03T00:11:13.088Z,100622.54
2019-03-03T00:11:50.342Z,100628.58
2019-03-03T00:12:27.521Z,100628.58
2019-03-03T00:13:03.912Z,100633.37
2019-03-03T00:13:40.299Z,100639.39
2019-03-03T00:14:16.611Z,100641.09
2019-03-03T00:14:53.009Z,100632.30
2019-03-03T00:15:30.700Z,100642.77
2019-03-03T00:16:09.614Z,100642.77
2019-03-03T00:16:45.797Z,100645.16
2019-03-03T00:17:24.551Z,100648.42
2019-03-03T00:18:03.307Z,100654.08
2019-03-03T00:18:39.616Z,100649.77
2019-03-03T00:19:15.962Z,100644.72
2019-03-03T00:19:52.291Z,100644.72
2019-03-03T00:20:28.510Z,100652.22
2019-03-03T00:21:04.973Z,100653.83
2019-03-03T00:21:41.285Z,100653.83
2019-03-03T00:22:19.192Z,100647.67
2019-03-03T00:22:56.305Z,100647.67
2019-03-03T00:23:32.646Z,100647.67
2019-03-03T00:24:10.111Z,100655.67
2019-03-03T00:24:46.497Z,100652.47
2019-03-03T00:25:32.799Z,100648.97
2019-03-03T00:26:10.155Z,100648.97
2019-03-03T00:26:46.409Z,100657.31
2019-03-03T00:27:22.771Z,100662.72
2019-03-03T00:28:01.421Z,100662.72
2019-03-03T00:28:39.176Z,100651.97
2019-03-03T00:29:17.890Z,100653.02
2019-03-03T00:29:55.203Z,100667.83
2019-03-03T00:30:33.934Z,100668.08
2019-03-03T00:31:10.179Z,100670.48
2019-03-03T00:31:46.569Z,100670.48
2019-03-03T00:32:22.965Z,100672.84
2019-03-03T00:32:59.294Z,100671.73
2019-03-03T00:33:35.650Z,100673.59
2019-03-03T00:34:16.619Z,100679.50
2019-03-03T00:34:54.513Z,100679.50
2019-03-03T00:35:33.115Z,100674.84
2019-03-03T00:36:15.094Z,100683.70
2019-03-03T00:37:18.491Z,100683.70
2019-03-03T00:38:05.584Z,100685.05
2019-03-03T00:39:16.784Z,100679.34
2019-03-03T00:40:17.859Z,100679.34
2019-03-03T00:41:17.811Z,100682.00
2019-03-03T00:42:16.967Z,100682.00
2019-03-03T00:43:18.595Z,100676.25
2019-03-03T00:44:11.600Z,100676.25
2019-03-03T00:45:07.353Z,100675.20
2019-03-03T00:46:02.471Z,100683.27
2019-03-03T00:47:07.252Z,100691.97
2019-03-03T00:48:07.020Z,100691.97
2019-03-03T00:49:02.530Z,100683.41
2019-03-03T00:50:10.413Z,100694.06
2019-03-03T00:51:05.716Z,100694.06
2019-03-03T00:51:52.595Z,100691.41
2019-03-03T00:52:55.426Z,100694.31
2019-03-03T00:53:50.524Z,100694.31
2019-03-03T00:54:41.589Z,100691.91
2019-03-03T00:55:32.342Z,100690.67
2019-03-03T00:56:21.411Z,100695.41
2019-03-03T00:57:19.175Z,100695.41
2019-03-03T00:58:13.428Z,100696.92
2019-03-03T00:59:00.432Z,100696.92
2019-03-03T01:00:02.824Z,100698.83
2019-03-03T01:00:51.045Z,100703.59
2019-03-03T01:02:03.082Z,100700.18
2019-03-03T01:02:59.364Z,100701.66
2019-03-03T01:03:39.877Z,100699.95
2019-03-03T01:04:39.483Z,100706.62
2019-03-03T01:05:34.314Z,100706.62
2019-03-03T01:06:40.212Z,100708.96
2019-03-03T01:07:35.365Z,100708.96
2019-03-03T01:08:43.126Z,100706.36
2019-03-03T01:09:52.649Z,100706.36
2019-03-03T01:10:51.884Z,100712.78
2019-03-03T01:11:54.649Z,100712.78
2019-03-03T01:12:43.510Z,100712.69
2019-03-03T01:13:43.496Z,100713.92
2019-03-03T01:14:33.495Z,100702.78
2019-03-03T01:15:51.149Z,100710.17
2019-03-03T01:16:48.916Z,100710.17
2019-03-03T01:17:53.012Z,100710.61
2019-03-03T01:19:01.122Z,100710.61
2019-03-03T01:19:44.141Z,100722.38
2019-03-03T01:20:31.049Z,100712.13
2019-03-03T01:21:41.886Z,100717.63
2019-03-03T01:22:32.188Z,100719.89
2019-03-03T01:23:24.921Z,100716.45
2019-03-03T01:24:30.467Z,100714.13
2019-03-03T01:25:09.858Z,100717.67
2019-03-03T01:25:51.022Z,100713.70
2019-03-03T01:26:27.822Z,100718.67
2019-03-03T01:27:04.878Z,100710.25
2019-03-03T01:27:42.938Z,100714.73
2019-03-03T01:28:19.889Z,100712.42
2019-03-03T01:28:57.814Z,100706.85
2019-03-03T01:29:35.535Z,100715.96
2019-03-03T01:30:15.237Z,100708.84
2019-03-03T01:31:01.369Z,100715.39
2019-03-03T01:31:37.964Z,100712.53
2019-03-03T01:32:14.505Z,100712.70
2019-03-03T01:32:50.873Z,100713.10
2019-03-03T01:33:27.220Z,100709.59
2019-03-03T01:34:04.945Z,100709.99
2019-03-03T01:34:43.805Z,100715.03
2019-03-03T01:35:21.928Z,100711.08
2019-03-03T01:35:58.445Z,100717.47
2019-03-03T01:36:39.964Z,100716.59
2019-03-03T01:37:17.704Z,100714.59
2019-03-03T01:37:56.157Z,100723.23
2019-03-03T01:38:36.722Z,100721.78
2019-03-03T01:39:15.617Z,100720.06
2019-03-03T01:39:57.158Z,100722.38
2019-03-03T01:40:33.451Z,100721.45
2019-03-03T01:41:10.673Z,100725.37
2019-03-03T01:41:47.351Z,100724.41
2019-03-03T01:42:31.210Z,100727.80
2019-03-03T01:43:07.712Z,100727.80
2019-03-03T01:43:44.940Z,100723.80
2019-03-03T01:44:22.760Z,100720.91
2019-03-03T01:45:00.764Z,100723.22
2019-03-03T01:45:38.133Z,100720.90
2019-03-03T01:46:14.359Z,100721.41
2019-03-03T01:46:51.869Z,100720.77
2019-03-03T01:47:28.100Z,100729.07
2019-03-03T01:48:04.604Z,100719.80
2019-03-03T01:48:45.524Z,100722.75
2019-03-03T01:49:26.709Z,100723.50
2019-03-03T01:50:06.517Z,100724.62
2019-03-03T01:50:47.890Z,100727.57
2019-03-03T01:51:24.224Z,100723.32
2019-03-03T01:52:00.633Z,100724.52
2019-03-03T01:52:37.897Z,100721.79
2019-03-03T01:53:15.091Z,100723.66
2019-03-03T01:53:54.936Z,100731.17
2019-03-03T01:54:31.205Z,100731.64
2019-03-03T01:55:08.245Z,100725.64
2019-03-03T01:55:48.704Z,100730.28
2019-03-03T01:56:34.423Z,100734.28
2019-03-03T01:57:10.663Z,100732.59
2019-03-03T01:57:49.577Z,100732.42
2019-03-03T01:58:27.304Z,100738.42
2019-03-03T01:59:03.771Z,100734.25
2019-03-03T01:59:40.127Z,100730.64
2019-03-03T02:00:23.429Z,100735.70
2019-03-03T02:01:00.623Z,100737.53
2019-03-03T02:01:36.982Z,100736.09
2019-03-03T02:02:14.872Z,100736.23
2019-03-03T02:02:51.487Z,100742.14
2019-03-03T02:03:28.645Z,100741.73
2019-03-03T02:04:05.033Z,100742.00
2019-03-03T02:04:42.615Z,100742.14
2019-03-03T02:05:23.874Z,100741.82
2019-03-03T02:06:00.274Z,100751.19
2019-03-03T02:06:37.652Z,100737.41
2019-03-03T02:07:16.387Z,100743.23
2019-03-03T02:07:56.910Z,100743.61
2019-03-03T02:08:33.364Z,100746.17
2019-03-03T02:09:13.303Z,100744.63
2019-03-03T02:09:49.671Z,100749.88
2019-03-03T02:10:26.690Z,100743.08
2019-03-03T02:11:11.203Z,100748.05
2019-03-03T02:11:47.501Z,100745.23
2019-03-03T02:12:29.788Z,100742.98
2019-03-03T02:13:06.094Z,100745.28
2019-03-03T02:13:42.482Z,100744.09
2019-03-03T02:14:20.249Z,100740.73
2019-03-03T02:15:00.311Z,100746.89
2019-03-03T02:15:37.420Z,100741.58
2019-03-03T02:16:13.876Z,100746.59
2019-03-03T02:16:50.187Z,100749.55
2019-03-03T02:17:26.476Z,100745.14
2019-03-03T02:18:04.846Z,100751.52
2019-03-03T02:18:41.085Z,100749.27
2019-03-03T02:19:17.281Z,100745.41
2019-03-03T02:19:53.472Z,100752.95
2019-03-03T02:20:33.904Z,100753.42
2019-03-03T02:21:10.915Z,100749.10
2019-03-03T02:21:49.247Z,100756.61
2019-03-03T02:22:30.965Z,100750.50
2019-03-03T02:23:15.439Z,100748.80
2019-03-03T02:23:52.757Z,100752.09
2019-03-03T02:24:31.093Z,100755.16
2019-03-03T02:25:08.963Z,100752.69
2019-03-03T02:25:48.039Z,100755.89
2019-03-03T02:26:27.397Z,100752.19
2019-03-03T02:27:04.576Z,100758.11
2019-03-03T02:27:46.445Z,100756.34
2019-03-03T02:28:22.953Z,100752.98
2019-03-03T02:29:03.250Z,100756.45
2019-03-03T02:29:39.651Z,100759.47
2019-03-03T02:30:19.376Z,100759.47
2019-03-03T02:31:00.201Z,100755.87
2019-03-03T02:31:37.479Z,100760.66
2019-03-03T02:32:14.781Z,100763.19
2019-03-03T02:32:52.106Z,100762.16
2019-03-03T02:33:28.399Z,100759.56
2019-03-03T02:34:27.093Z,100757.73
2019-03-03T02:35:03.458Z,100757.97
2019-03-03T02:35:39.834Z,100760.70
2019-03-03T02:36:17.689Z,100760.59
2019-03-03T02:36:55.779Z,100760.03
2019-03-03T02:37:33.631Z,100762.32
2019-03-03T02:38:10.002Z,100758.00
2019-03-03T02:38:46.295Z,100764.58
2019-03-03T02:39:25.676Z,100762.98
2019-03-03T02:40:01.898Z,100756.05
2019-03-03T02:40:40.661Z,100756.70
2019-03-03T02:41:17.876Z,100759.89
2019-03-03T02:42:21.534Z,100755.70
2019-03-03T02:42:59.912Z,100750.72
2019-03-03T02:43:46.799Z,100756.84
2019-03-03T02:44:25.786Z,100756.70
2019-03-03T02:45:03.888Z,100761.16
2019-03-03T02:45:41.206Z,100761.63
2019-03-03T02:46:18.535Z,100759.70
2019-03-03T02:47:02.373Z,100762.32
2019-03-03T02:47:39.733Z,100763.45
2019-03-03T02:48:19.242Z,100762.84
2019-03-03T02:49:01.133Z,100769.68
2019-03-03T02:49:41.848Z,100766.28
2019-03-03T02:50:23.220Z,100768.89
2019-03-03T02:50:59.957Z,100764.23
2019-03-03T02:51:37.268Z,100767.39
2019-03-03T02:52:13.587Z,100766.27
2019-03-03T02:52:51.073Z,100773.31
2019-03-03T02:53:27.458Z,100768.55
2019-03-03T02:54:03.963Z,100773.91
2019-03-03T02:54:41.660Z,100766.31
2019-03-03T02:55:18.775Z,100769.27
2019-03-03T02:55:57.019Z,100764.95
2019-03-03T02:56:33.363Z,100768.58
2019-03-03T02:57:10.321Z,100771.07
2019-03-03T02:57:47.528Z,100769.81
2019-03-03T02:58:23.779Z,100766.28
2019-03-03T02:59:03.941Z,100772.44
2019-03-03T02:59:42.389Z,100770.94
2019-03-03T03:00:21.183Z,100770.27
2019-03-03T03:01:17.500Z,100763.35
2019-03-03T03:02:01.280Z,100770.81
2019-03-03T03:02:58.779Z,100773.10
2019-03-03T03:03:35.820Z,100764.69
2019-03-03T03:04:13.366Z,100764.00
2019-03-03T03:04:49.692Z,100772.77
2019-03-03T03:05:56.467Z,100772.44
2019-03-03T03:06:53.808Z,100772.48
2019-03-03T03:07:51.773Z,100774.98
2019-03-03T03:08:41.037Z,100773.18
2019-03-03T03:09:22.707Z,100775.85
2019-03-03T03:10:12.944Z,100777.45
2019-03-03T03:11:05.232Z,100775.30
2019-03-03T03:11:59.255Z,100774.33
2019-03-03T03:13:04.335Z,100777.39
2019-03-03T03:13:59.081Z,100774.97
2019-03-03T03:14:51.326Z,100774.33
2019-03-03T03:15:45.260Z,100772.34
2019-03-03T03:16:51.077Z,100778.50
2019-03-03T03:18:00.045Z,100778.42
2019-03-03T03:19:04.841Z,100773.31
2019-03-03T03:19:53.676Z,100783.23
2019-03-03T03:20:44.435Z,100775.30
2019-03-03T03:21:33.825Z,100782.70
2019-03-03T03:22:30.222Z,100780.28
2019-03-03T03:23:37.025Z,100776.30
2019-03-03T03:24:42.867Z,100777.33
2019-03-03T03:25:38.779Z,100777.38
2019-03-03T03:26:32.218Z,100779.59
2019-03-03T03:27:24.634Z,100776.09
2019-03-03T03:28:18.921Z,100780.36
2019-03-03T03:29:23.642Z,100779.86
2019-03-03T03:30:23.799Z,100778.30
2019-03-03T03:31:17.005Z,100778.09
2019-03-03T03:32:18.246Z,100770.17
2019-03-03T03:33:19.885Z,100774.88
2019-03-03T03:34:17.548Z,100775.45
2019-03-03T03:35:13.672Z,100770.63
2019-03-03T03:36:20.211Z,100772.64
2019-03-03T03:37:06.678Z,100772.66
2019-03-03T03:38:21.151Z,100776.19
2019-03-03T03:39:12.159Z,100773.98
2019-03-03T03:39:57.694Z,100771.20
2019-03-03T03:41:06.777Z,100767.80
2019-03-03T03:42:06.850Z,100773.71
2019-03-03T03:42:54.298Z,100768.70
2019-03-03T03:44:01.831Z,100771.20
2019-03-03T03:44:52.359Z,100762.89
2019-03-03T03:45:52.193Z,100769.16
2019-03-03T03:46:52.116Z,100769.77
2019-03-03T03:47:51.202Z,100766.50
2019-03-03T03:48:52.029Z,100774.70
2019-03-03T03:50:03.334Z,100771.05
2019-03-03T03:51:03.935Z,100765.03
2019-03-03T03:52:05.979Z,100775.38
2019-03-03T03:53:12.344Z,100771.05
2019-03-03T03:54:26.471Z,100774.66
2019-03-03T03:55:26.344Z,100774.91
2019-03-03T03:56:19.539Z,100773.09
2019-03-03T03:57:06.504Z,100771.32
2019-03-03T04:00:02.462Z,100773.46
2019-03-03T04:01:00.100Z,100771.59
2019-03-03T04:01:57.156Z,100769.03
2019-03-03T04:02:58.132Z,100771.77
2019-03-03T04:03:58.208Z,100766.36
2019-03-03T04:04:53.370Z,100764.61
2019-03-03T04:05:57.489Z,100760.88
2019-03-03T04:06:49.356Z,100765.53
2019-03-03T04:07:35.853Z,100764.36
2019-03-03T04:08:22.737Z,100767.50
2019-03-03T04:09:17.748Z,100764.31
2019-03-03T04:10:02.060Z,100769.32
2019-03-03T04:10:58.824Z,100765.25
2019-03-03T04:11:57.390Z,100766.97
2019-03-03T04:13:10.831Z,100760.39
2019-03-03T04:14:01.120Z,100761.19
2019-03-03T04:14:49.895Z,100757.36
2019-03-03T04:15:43.553Z,100755.56
2019-03-03T04:16:37.317Z,100754.69
2019-03-03T04:17:36.981Z,100752.91
2019-03-03T04:18:21.085Z,100752.40
2019-03-03T04:19:21.624Z,100751.16
2019-03-03T04:20:15.906Z,100753.08
2019-03-03T04:21:10.779Z,100754.21
2019-03-03T04:22:05.123Z,100748.89
2019-03-03T04:22:51.448Z,100748.28
2019-03-03T04:24:02.851Z,100752.37
2019-03-03T04:24:50.018Z,100753.73
2019-03-03T04:26:17.834Z,100744.45
2019-03-03T04:27:06.742Z,100749.70
2019-03-03T04:27:53.477Z,100738.41
2019-03-03T04:28:51.669Z,100735.47
2019-03-03T04:29:44.647Z,100738.28
2019-03-03T04:30:31.360Z,100732.62
2019-03-03T04:31:17.113Z,100735.59
2019-03-03T04:32:14.740Z,100731.73
2019-03-03T04:33:10.150Z,100735.03
2019-03-03T04:33:54.406Z,100732.89
2019-03-03T04:34:50.392Z,100736.31
2019-03-03T04:35:48.965Z,100730.40
2019-03-03T04:36:50.637Z,100731.63
2019-03-03T04:38:13.214Z,100722.34
2019-03-03T04:39:11.026Z,100724.77
2019-03-03T04:39:55.195Z,100716.64
2019-03-03T04:40:42.546Z,100709.70
2019-03-03T04:41:45.599Z,100712.78
2019-03-03T04:42:37.653Z,100710.62
2019-03-03T04:43:44.100Z,100710.04
2019-03-03T04:44:46.744Z,100710.73
2019-03-03T04:45:32.501Z,100710.95
2019-03-03T04:46:34.527Z,100708.45
2019-03-03T04:47:23.407Z,100706.59
2019-03-03T04:48:24.657Z,100709.58
2019-03-03T04:49:37.834Z,100707.77
2019-03-03T04:50:33.823Z,100705.27
2019-03-03T04:51:35.545Z,100703.06
2019-03-03T04:52:47.263Z,100701.63
2019-03-03T04:53:48.449Z,100698.90
2019-03-03T04:54:42.671Z,100697.67
2019-03-03T04:55:46.276Z,100693.45
2019-03-03T04:56:30.994Z,100691.54
2019-03-03T04:57:20.207Z,100692.72
2019-03-03T04:58:13.976Z,100688.06
2019-03-03T04:59:09.459Z,100688.17
2019-03-03T05:00:12.654Z,100686.47
2019-03-03T05:01:15.103Z,100688.02
2019-03-03T05:02:09.246Z,100681.63
2019-03-03T05:03:02.726Z,100674.81
2019-03-03T05:04:01.514Z,100677.73
2019-03-03T05:05:13.775Z,100676.86
2019-03-03T05:06:11.527Z,100670.73
2019-03-03T05:07:08.777Z,100677.83
2019-03-03T05:08:01.614Z,100672.59
2019-03-03T05:08:54.536Z,100669.19
2019-03-03T05:09:50.057Z,100663.46
2019-03-03T05:10:40.891Z,100668.73
2019-03-03T05:12:23.077Z,100670.77
2019-03-03T05:13:05.624Z,100658.95
2019-03-03T05:14:00.337Z,100663.16
2019-03-03T05:14:42.145Z,100652.59
2019-03-03T05:15:41.879Z,100659.41
2019-03-03T05:16:40.261Z,100654.07
2019-03-03T05:17:24.659Z,100655.55
2019-03-03T05:18:09.152Z,100650.77
2019-03-03T05:19:10.396Z,100652.33
2019-03-03T05:19:54.505Z,100650.50
2019-03-03T05:20:49.696Z,100646.91
2019-03-03T05:21:25.925Z,100643.84
2019-03-03T05:22:02.349Z,100640.66
2019-03-03T05:22:38.661Z,100639.66
2019-03-03T05:23:15.587Z,100639.43
2019-03-03T05:23:52.806Z,100636.62
2019-03-03T05:24:34.543Z,100638.66
2019-03-03T05:25:12.248Z,100638.43
2019-03-03T05:25:51.359Z,100640.37
2019-03-03T05:26:28.288Z,100635.59
2019-03-03T05:27:04.987Z,100636.95
2019-03-03T05:27:48.322Z,100636.50
2019-03-03T05:28:24.615Z,100637.86
2019-03-03T05:29:01.623Z,100639.11
2019-03-03T05:29:37.938Z,100630.27
2019-03-03T05:30:15.662Z,100635.24
2019-03-03T05:30:55.269Z,100628.10
2019-03-03T05:31:31.531Z,100628.76
2019-03-03T05:32:09.684Z,100627.31
2019-03-03T05:32:49.628Z,100621.70
2019-03-03T05:33:26.729Z,100620.36
2019-03-03T05:34:06.513Z,100617.17
2019-03-03T05:34:44.708Z,100620.35
2019-03-03T05:35:21.282Z,100616.70
2019-03-03T05:35:58.632Z,100612.95
2019-03-03T05:36:35.376Z,100610.23
2019-03-03T05:37:12.457Z,100609.31
2019-03-03T05:37:48.844Z,100614.32
2019-03-03T05:38:25.838Z,100606.25
2019-03-03T05:39:02.820Z,100607.39
2019-03-03T05:39:39.255Z,100611.95
2019-03-03T05:40:16.293Z,100612.95
2019-03-03T05:40:53.438Z,100606.94
2019-03-03T05:41:29.640Z,100600.11
2019-03-03T05:42:09.568Z,100603.19
2019-03-03T05:42:46.475Z,100595.91
2019-03-03T05:43:23.470Z,100595.78
2019-03-03T05:43:59.639Z,100602.16
2019-03-03T05:44:36.607Z,100594.07
2019-03-03T05:45:12.908Z,100585.19
2019-03-03T05:45:49.218Z,100586.88
2019-03-03T05:46:25.508Z,100591.43
2019-03-03T05:47:03.488Z,100584.62
2019-03-03T05:47:39.727Z,100589.05
2019-03-03T05:48:16.618Z,100588.12
2019-03-03T05:48:55.346Z,100590.08
2019-03-03T05:49:34.101Z,100586.42
2019-03-03T05:50:10.760Z,100584.49
2019-03-03T05:50:47.608Z,100582.23
2019-03-03T05:51:23.887Z,100582.78
2019-03-03T05:52:09.481Z,100579.36
2019-03-03T05:52:46.391Z,100573.92
2019-03-03T05:53:22.674Z,100577.56
2019-03-03T05:54:03.859Z,100578.94
2019-03-03T05:54:40.210Z,100575.84
2019-03-03T05:55:17.452Z,100578.13
2019-03-03T05:55:55.244Z,100572.55
2019-03-03T05:56:31.991Z,100571.06
2019-03-03T05:57:08.474Z,100568.69
2019-03-03T05:57:45.852Z,100575.52
2019-03-03T05:58:23.059Z,100575.73
2019-03-03T05:59:00.460Z,100566.62
2019-03-03T05:59:36.786Z,100568.11
2019-03-03T06:00:14.427Z,100567.31
2019-03-03T06:00:51.449Z,100562.98
2019-03-03T06:01:40.319Z,100566.18
2019-03-03T06:02:16.604Z,100566.28
2019-03-03T06:02:54.368Z,100563.22
2019-03-03T06:03:40.627Z,100565.48
2019-03-03T06:04:17.193Z,100562.66
2019-03-03T06:04:53.485Z,100559.81
2019-03-03T06:05:29.772Z,100561.40
2019-03-03T06:06:06.648Z,100556.48
2019-03-03T06:06:43.125Z,100556.71
2019-03-03T06:07:19.815Z,100557.19
2019-03-03T06:07:56.003Z,100553.19
2019-03-03T06:08:32.861Z,100556.38
2019-03-03T06:09:10.842Z,100560.48
2019-03-03T06:09:47.604Z,100555.94
2019-03-03T06:10:23.909Z,100548.98
2019-03-03T06:11:01.312Z,100549.91
2019-03-03T06:11:39.692Z,100552.96
2019-03-03T06:12:16.286Z,100552.05
2019-03-03T06:12:55.969Z,100551.12
2019-03-03T06:13:32.667Z,100542.71
2019-03-03T06:14:09.034Z,100546.81
2019-03-03T06:14:49.104Z,100544.30
2019-03-03T06:15:25.857Z,100540.42
2019-03-03T06:16:02.188Z,100535.63
2019-03-03T06:16:39.254Z,100537.31
2019-03-03T06:17:18.200Z,100539.25
2019-03-03T06:17:55.888Z,100534.48
2019-03-03T06:18:34.319Z,100534.93
2019-03-03T06:19:10.535Z,100541.19
2019-03-03T06:19:51.128Z,100536.52
2019-03-03T06:20:28.405Z,100532.64
2019-03-03T06:21:07.433Z,100536.87
2019-03-03T06:21:43.678Z,100530.01
2019-03-03T06:22:20.136Z,100533.53
2019-03-03T06:22:58.824Z,100521.49
2019-03-03T06:23:35.974Z,100520.12
2019-03-03T06:24:12.936Z,100520.38
2019-03-03T06:24:49.666Z,100519.81
2019-03-03T06:25:28.786Z,100518.53
2019-03-03T06:26:09.126Z,100525.17
2019-03-03T06:26:45.349Z,100521.08
2019-03-03T06:27:45.841Z,100511.70
2019-03-03T06:28:21.983Z,100510.78
2019-03-03T06:28:59.117Z,100511.77
2019-03-03T06:29:37.554Z,100510.27
2019-03-03T06:30:16.210Z,100511.19
2019-03-03T06:30:52.607Z,100513.70
2019-03-03T06:31:32.415Z,100512.11
2019-03-03T06:32:10.270Z,100515.52
2019-03-03T06:32:48.042Z,100512.56
2019-03-03T06:33:34.718Z,100510.84
2019-03-03T06:34:11.815Z,100513.44
2019-03-03T06:34:49.757Z,100508.89
2019-03-03T06:35:26.805Z,100508.98
2019-03-03T06:36:07.594Z,100500.70
2019-03-03T06:36:44.002Z,100503.44
2019-03-03T06:37:21.293Z,100499.86
2019-03-03T06:37:59.809Z,100501.26
2019-03-03T06:38:36.558Z,100497.64
2019-03-03T06:39:13.589Z,100500.47
2019-03-03T06:39:50.699Z,100493.31
2019-03-03T06:40:27.591Z,100493.06
2019-03-03T06:41:05.247Z,100493.06
2019-03-03T06:41:42.581Z,100495.44
2019-03-03T06:42:18.756Z,100494.84
2019-03-03T06:42:55.046Z,100495.94
2019-03-03T06:43:31.361Z,100497.30
2019-03-03T06:44:08.478Z,100491.39
2019-03-03T06:44:45.651Z,100494.00
2019-03-03T06:45:22.099Z,100487.47
2019-03-03T06:46:06.110Z,100484.61
2019-03-03T06:46:45.922Z,100484.48
2019-03-03T06:47:23.787Z,100484.69
2019-03-03T06:48:00.098Z,100485.59
2019-03-03T06:48:37.352Z,100481.36
2019-03-03T06:49:14.329Z,100480.00
2019-03-03T06:49:58.306Z,100473.05
2019-03-03T06:50:35.823Z,100480.34
2019-03-03T06:51:13.616Z,100480.22
2019-03-03T06:51:50.606Z,100473.69
2019-03-03T06:52:37.641Z,100476.06
2019-03-03T06:53:16.738Z,100472.05
2019-03-03T06:53:54.295Z,100467.67
2019-03-03T06:54:33.815Z,100472.44
2019-03-03T06:55:11.500Z,100469.95
2019-03-03T06:55:47.848Z,100467.87
2019-03-03T06:56:25.073Z,100467.68
2019-03-03T06:57:02.504Z,100468.94
2019-03-03T06:57:40.522Z,100460.02
2019-03-03T06:58:18.063Z,100460.67
2019-03-03T06:58:54.350Z,100463.63
2019-03-03T06:59:33.836Z,100452.36
2019-03-03T07:00:13.899Z,100457.69
2019-03-03T07:00:53.553Z,100455.89
2019-03-03T07:01:31.433Z,100459.50
2019-03-03T07:02:10.632Z,100456.90
2019-03-03T07:02:47.792Z,100449.95
2019-03-03T07:03:26.393Z,100453.65
2019-03-03T07:04:03.630Z,100450.45
2019-03-03T07:04:44.331Z,100453.89
2019-03-03T07:05:23.464Z,100451.59
2019-03-03T07:06:00.340Z,100446.81
2019-03-03T07:06:38.654Z,100440.55
2019-03-03T07:07:16.411Z,100443.06
2019-03-03T07:07:52.952Z,100443.34
2019-03-03T07:08:29.960Z,100443.20
2019-03-03T07:09:08.277Z,100446.23
2019-03-03T07:09:45.757Z,100446.51
2019-03-03T07:10:22.909Z,100443.86
2019-03-03T07:10:59.714Z,100441.23
2019-03-03T07:11:38.470Z,100440.09
2019-03-03T07:12:16.007Z,100434.84
2019-03-03T07:12:52.914Z,100445.45
2019-03-03T07:13:29.284Z,100435.52
2019-03-03T07:14:06.074Z,100443.04
2019-03-03T07:14:44.019Z,100443.06
2019-03-03T07:15:24.549Z,100440.47
2019-03-03T07:16:01.537Z,100429.31
2019-03-03T07:16:39.273Z,100433.33
2019-03-03T07:17:15.569Z,100436.55
2019-03-03T07:17:59.631Z,100432.17
2019-03-03T07:18:35.940Z,100433.32
2019-03-03T07:19:14.072Z,100430.80
2019-03-03T07:19:51.758Z,100430.28
2019-03-03T07:20:28.094Z,100432.22
2019-03-03T07:21:25.606Z,100432.75
2019-03-03T07:22:02.960Z,100431.16
2019-03-03T07:22:39.901Z,100423.23
2019-03-03T07:23:18.362Z,100417.05
2019-03-03T07:23:59.620Z,100413.88
2019-03-03T07:24:38.702Z,100418.37
2019-03-03T07:25:18.237Z,100416.56
2019-03-03T07:25:57.225Z,100418.94
2019-03-03T07:26:33.868Z,100414.95
2019-03-03T07:27:13.331Z,100418.28
2019-03-03T07:27:49.537Z,100414.05
2019-03-03T07:28:27.347Z,100410.68
2019-03-03T07:29:04.678Z,100412.31
2019-03-03T07:29:40.963Z,100414.13
2019-03-03T07:30:18.562Z,100416.85
2019-03-03T07:31:00.907Z,100409.56
2019-03-03T07:31:37.575Z,100410.80
2019-03-03T07:32:14.933Z,100409.42
2019-03-03T07:33:13.231Z,100413.17
2019-03-03T07:33:54.992Z,100410.17
2019-03-03T07:34:54.106Z,100410.42
2019-03-03T07:35:51.926Z,100405.41
2019-03-03T07:36:29.107Z,100406.83
2019-03-03T07:37:06.115Z,100401.69
2019-03-03T07:37:42.895Z,100405.22
2019-03-03T07:38:40.983Z,100404.09
2019-03-03T07:39:21.412Z,100402.95
2019-03-03T07:39:58.711Z,100396.33
2019-03-03T07:40:35.756Z,100395.84
2019-03-03T07:41:15.904Z,100391.03
2019-03-03T07:41:56.825Z,100397.86
2019-03-03T07:42:38.698Z,100395.60
2019-03-03T07:43:14.941Z,100392.95
2019-03-03T07:44:05.335Z,100386.47
2019-03-03T07:44:42.090Z,100391.44
2019-03-03T07:45:19.096Z,100388.49
2019-03-03T07:45:55.441Z,100391.01
2019-03-03T07:46:32.290Z,100383.73
2019-03-03T07:47:09.703Z,100387.18
2019-03-03T07:47:46.583Z,100385.10
2019-03-03T07:48:25.830Z,100381.66
2019-03-03T07:49:02.977Z,100381.66
2019-03-03T07:49:41.833Z,100382.53
2019-03-03T07:50:19.318Z,100379.22
2019-03-03T07:50:55.807Z,100380.67
2019-03-03T07:51:33.548Z,100376.77
2019-03-03T07:52:09.738Z,100373.56
2019-03-03T07:52:46.465Z,100371.89
2019-03-03T07:53:22.810Z,100373.31
2019-03-03T07:53:59.116Z,100373.55
2019-03-03T07:54:35.507Z,100366.80
2019-03-03T07:55:15.951Z,100366.14
2019-03-03T07:55:52.129Z,100367.95
2019-03-03T07:56:30.043Z,100373.20
2019-03-03T07:57:07.444Z,100370.52
2019-03-03T07:57:43.614Z,100366.63
2019-03-03T07:58:20.381Z,100365.22
2019-03-03T07:58:57.742Z,100361.23
2019-03-03T07:59:44.837Z,100365.77
2019-03-03T08:00:22.839Z,100361.53
2019-03-03T08:01:00.287Z,100364.70
2019-03-03T08:01:56.204Z,100360.69
2019-03-03T08:02:34.746Z,100366.73
2019-03-03T08:03:12.858Z,100360.17
2019-03-03T08:03:50.515Z,100359.30
2019-03-03T08:04:29.694Z,100354.86
2019-03-03T08:05:06.443Z,100356.13
2019-03-03T08:05:43.432Z,100353.61
2019-03-03T08:06:19.608Z,100358.39
2019-03-03T08:06:57.466Z,100355.44
2019-03-03T08:07:34.646Z,100355.00
2019-03-03T08:08:22.751Z,100352.48
2019-03-03T08:08:59.757Z,100350.95
2019-03-03T08:09:36.041Z,100351.52
2019-03-03T08:10:12.394Z,100352.31
2019-03-03T08:10:49.309Z,100357.56
2019-03-03T08:11:25.506Z,100350.42
2019-03-03T08:12:01.816Z,100350.78
2019-03-03T08:12:40.489Z,100351.57
2019-03-03T08:13:17.472Z,100349.41
2019-03-03T08:13:57.743Z,100348.27
2019-03-03T08:14:58.117Z,100350.56
2019-03-03T08:15:35.724Z,100343.86
2019-03-03T08:16:11.944Z,100342.36
2019-03-03T08:16:50.103Z,100338.62
2019-03-03T08:17:33.169Z,100337.61
2019-03-03T08:18:10.675Z,100342.80
2019-03-03T08:18:47.682Z,100347.12
2019-03-03T08:19:24.046Z,100342.89
2019-03-03T08:20:05.187Z,100337.42
2019-03-03T08:20:45.405Z,100339.36
2019-03-03T08:21:23.195Z,100345.97